Aérodrome :
LOGIN :

S'inscrire | Disclaimer

   EN    FR    IT 

 










Légende :    VFR   VFR Marginal   IFR   IFR Intensif   IFR Très Intensif
Visi : 
Plafond : 
>= 8 km
>= 3000ft
5 à 8 km
1000 à 3000 ft
1500m à 5 km
500 à 1000 ft
800 à 1500m
200 à 500 ft
< 800m
< 200 ft
Symboles :   Orages  Brouillard  Fortes neiges  Fortes précipitations  Vent > 20 kt
SIGMETs :   Divers  Orages  Givrage  Turbulence  Onde Orograph.  Cendres Volcan.







- Altitude de l'aérodrome : 0 ft


ETEB - Ansbach Army Heliport

DERNIER METAR :
  • 172156Z AUTO 01006KT 9999 BKN055 OVC070 M01/M01 A3019 RMK AO2 UPE2059 SLP265 P0000 T10091010 $

METARs EXPIRÉS :
  • 172059Z AUTO 36006KT 9999 FEW055 SCT080 M01/M01 A3017 RMK AO2 UPE59 SLP258 $
  • 172039Z AUTO 36006KT 9999 -UP SCT080 M01/M01 A3016 RMK AO2 UPB17E37UPB39 SLP254 $
  • 172022Z AUTO 36005KT 9999 -UP FEW080 M01/M01 A3015 RMK AO2 UPB17 SLP251 $
  • 171956Z AUTO 02005KT 9999 FEW023 M01/M01 A3014 RMK AO2 SNE01 SLP248 P0000 T10061007 $

Prévision TAF périmée.
Pas de NOTAMs connus pour ce terrain.



MET'MAP, la Météo Aéronautique d'un coup d'oeil ! - Copyright ORBIFLY Décembre 2007 - Disclaimer

ORBIFLY MET'MAP TEAM :

Programmation & Développement : Alexandra Zaïnal
Conception & Développement : Baudouin d'Aumeries
Co-Programmation & Développement : Marc-Olivier Méhu
Soutien technique & logistique : Manuel Goepfert

Contact : metmap@orbifly.com




SOURCES & CREDITS :

   NOAA